createdAt,value
2018-08-04T00:02:06.162Z,25.28
2018-08-04T00:04:34.188Z,25.25
2018-08-04T00:07:02.306Z,25.14
2018-08-04T00:09:30.405Z,25.14
2018-08-04T00:11:58.494Z,25.20
2018-08-04T00:14:26.527Z,25.18
2018-08-04T00:16:54.610Z,25.16
2018-08-04T00:19:22.699Z,25.11
2018-08-04T00:21:50.757Z,25.07
2018-08-04T00:24:18.825Z,25.02
2018-08-04T00:26:46.900Z,25.10
2018-08-04T00:29:14.963Z,25.08
2018-08-04T00:31:43.022Z,24.98
2018-08-04T00:34:11.118Z,25.14
2018-08-04T00:36:39.200Z,25.28
2018-08-04T00:39:07.436Z,25.46
2018-08-04T00:41:35.803Z,25.50
2018-08-04T00:44:03.902Z,25.31
2018-08-04T00:46:31.948Z,25.22
2018-08-04T00:49:00.016Z,25.09
2018-08-04T00:51:28.088Z,25.06
2018-08-04T00:53:56.148Z,24.93
2018-08-04T00:56:24.206Z,24.76
2018-08-04T00:58:52.258Z,24.59
2018-08-04T01:01:20.306Z,24.68
2018-08-04T01:03:48.353Z,24.61
2018-08-04T01:06:16.448Z,24.39
2018-08-04T01:08:44.503Z,24.38
2018-08-04T01:11:12.567Z,24.32
2018-08-04T01:13:40.708Z,24.09
2018-08-04T01:16:08.803Z,24.05
2018-08-04T01:18:36.873Z,24.46
2018-08-04T01:21:04.944Z,24.38
2018-08-04T01:23:32.994Z,24.37
2018-08-04T01:26:01.270Z,24.33
2018-08-04T01:28:29.328Z,24.55
2018-08-04T01:30:57.430Z,24.72
2018-08-04T01:33:25.480Z,24.77
2018-08-04T01:35:53.644Z,24.83
2018-08-04T01:38:21.715Z,24.99
2018-08-04T01:40:49.843Z,24.86
2018-08-04T01:43:17.895Z,24.78
2018-08-04T01:45:45.951Z,24.65
2018-08-04T01:48:14.033Z,24.64
2018-08-04T01:50:42.175Z,24.58
2018-08-04T01:53:10.415Z,24.32
2018-08-04T01:55:38.499Z,24.43
2018-08-04T01:58:06.568Z,24.32
2018-08-04T02:00:34.627Z,24.17
2018-08-04T02:03:02.686Z,23.98
2018-08-04T02:05:30.769Z,23.93
2018-08-04T02:07:58.810Z,23.60
2018-08-04T02:10:26.881Z,23.62
2018-08-04T02:12:54.931Z,23.66
2018-08-04T02:15:22.996Z,23.66
2018-08-04T02:17:51.059Z,23.46
2018-08-04T02:20:19.113Z,23.44
2018-08-04T02:22:47.208Z,23.36
2018-08-04T02:25:15.271Z,23.19
2018-08-04T02:27:43.328Z,23.11
2018-08-04T02:30:11.392Z,23.22
2018-08-04T02:32:39.579Z,23.13
2018-08-04T02:35:07.712Z,23.18
2018-08-04T02:37:35.756Z,23.19
2018-08-04T02:40:03.810Z,23.07
2018-08-04T02:42:31.865Z,23.11
2018-08-04T02:44:59.933Z,23.16
2018-08-04T02:47:27.987Z,23.04
2018-08-04T02:49:56.045Z,22.98
2018-08-04T02:52:24.115Z,22.94
2018-08-04T02:54:52.174Z,22.99
2018-08-04T02:57:20.246Z,22.92
2018-08-04T02:59:48.320Z,22.93
2018-08-04T03:02:16.384Z,23.01
2018-08-04T03:04:44.511Z,23.03
2018-08-04T03:07:12.607Z,22.77
2018-08-04T03:09:40.661Z,23.07
2018-08-04T03:12:08.723Z,23.45
2018-08-04T03:14:36.763Z,23.70
2018-08-04T03:17:04.847Z,23.92
2018-08-04T03:19:32.903Z,23.91
2018-08-04T03:22:01.004Z,24.01
2018-08-04T03:24:29.155Z,24.14
2018-08-04T03:26:57.232Z,24.14
2018-08-04T03:29:25.363Z,23.90
2018-08-04T03:31:53.446Z,24.19
2018-08-04T03:34:21.498Z,24.26
2018-08-04T03:36:49.587Z,24.19
2018-08-04T03:39:17.650Z,24.20
2018-08-04T03:41:45.722Z,24.13
2018-08-04T03:44:13.790Z,24.20
2018-08-04T03:46:41.860Z,24.34
2018-08-04T03:49:09.929Z,24.25
2018-08-04T03:51:37.999Z,24.34
2018-08-04T03:54:06.122Z,24.36
2018-08-04T03:56:34.187Z,24.38
2018-08-04T03:59:02.248Z,24.41
2018-08-04T04:01:30.308Z,24.41
2018-08-04T04:03:58.394Z,24.42
2018-08-04T04:06:26.463Z,24.51
2018-08-04T04:08:54.568Z,24.40
2018-08-04T04:11:22.650Z,24.30
2018-08-04T04:13:51.531Z,24.22
2018-08-04T04:16:19.582Z,23.98
2018-08-04T04:18:47.680Z,24.00
2018-08-04T04:21:15.775Z,24.14
2018-08-04T04:23:43.847Z,24.25
2018-08-04T04:26:11.971Z,24.61
2018-08-04T04:28:40.027Z,24.51
2018-08-04T04:31:08.096Z,24.33
2018-08-04T04:33:36.167Z,24.26
2018-08-04T04:36:04.251Z,24.19
2018-08-04T04:38:32.308Z,24.25
2018-08-04T04:41:00.395Z,24.32
2018-08-04T04:43:28.451Z,24.14
2018-08-04T04:45:56.504Z,24.06
2018-08-04T04:48:24.578Z,23.81
2018-08-04T04:50:52.615Z,23.68
2018-08-04T04:53:20.668Z,23.76
2018-08-04T04:55:48.755Z,24.17
2018-08-04T04:58:16.811Z,24.34
2018-08-04T05:00:44.864Z,24.43
2018-08-04T05:03:12.966Z,24.50
2018-08-04T05:05:41.013Z,24.64
2018-08-04T05:08:09.088Z,24.65
2018-08-04T05:10:37.152Z,24.82
2018-08-04T05:13:05.310Z,24.79
2018-08-04T05:15:33.346Z,24.81
2018-08-04T05:18:01.416Z,24.85
2018-08-04T05:20:29.497Z,24.88
2018-08-04T05:22:57.542Z,25.06
2018-08-04T05:25:25.614Z,25.13
2018-08-04T05:27:53.692Z,25.16
2018-08-04T05:30:21.747Z,25.23
2018-08-04T05:32:49.811Z,25.33
2018-08-04T05:35:17.862Z,25.38
2018-08-04T05:37:45.940Z,25.54
2018-08-04T05:40:14.026Z,25.60
2018-08-04T05:42:42.276Z,25.72
2018-08-04T05:45:10.659Z,25.79
2018-08-04T05:47:39.042Z,25.92
2018-08-04T05:50:07.586Z,25.95
2018-08-04T05:52:35.911Z,26.18
2018-08-04T05:55:04.108Z,26.22
2018-08-04T05:57:32.222Z,26.33
2018-08-04T06:00:00.512Z,26.43
2018-08-04T06:02:28.608Z,26.48
2018-08-04T06:04:56.698Z,26.52
2018-08-04T06:07:24.756Z,26.52
2018-08-04T06:09:53.142Z,26.53
2018-08-04T06:12:21.214Z,26.54
2018-08-04T06:14:49.283Z,26.51
2018-08-04T06:17:17.377Z,26.56
2018-08-04T06:19:45.463Z,26.50
2018-08-04T06:22:13.590Z,26.57
2018-08-04T06:24:41.658Z,26.62
2018-08-04T06:27:09.744Z,26.59
2018-08-04T06:29:37.788Z,26.69
2018-08-04T06:32:05.983Z,26.69
2018-08-04T06:34:34.062Z,26.79
2018-08-04T06:37:02.207Z,26.96
2018-08-04T06:39:30.296Z,27.18
2018-08-04T06:41:58.352Z,27.33
2018-08-04T06:44:26.476Z,27.39
2018-08-04T06:46:54.712Z,27.48
2018-08-04T06:49:22.791Z,27.46
2018-08-04T06:51:50.847Z,27.58
2018-08-04T06:54:18.924Z,27.63
2018-08-04T06:56:47.044Z,27.72
2018-08-04T06:59:15.139Z,27.73
2018-08-04T07:01:43.204Z,27.84
2018-08-04T07:04:11.252Z,27.94
2018-08-04T07:06:39.347Z,27.94
2018-08-04T07:09:08.576Z,27.96
2018-08-04T07:11:36.622Z,28.05
2018-08-04T07:14:05.030Z,28.09
2018-08-04T07:16:33.087Z,28.24
2018-08-04T07:19:01.135Z,28.28
2018-08-04T07:21:29.254Z,28.33
2018-08-04T07:23:57.299Z,28.47
2018-08-04T07:26:25.364Z,28.61
2018-08-04T07:28:53.474Z,28.61
2018-08-04T07:31:21.531Z,28.76
2018-08-04T07:33:49.647Z,28.87
2018-08-04T07:36:17.767Z,28.90
2018-08-04T07:38:45.892Z,29.01
2018-08-04T07:41:13.996Z,29.06
2018-08-04T07:43:42.132Z,29.10
2018-08-04T07:46:10.195Z,29.23
2018-08-04T07:48:38.244Z,29.34
2018-08-04T07:51:06.403Z,29.40
2018-08-04T07:53:34.543Z,29.59
2018-08-04T07:56:02.545Z,29.63
2018-08-04T07:58:30.595Z,29.77
2018-08-04T08:00:58.714Z,29.82
2018-08-04T08:03:26.824Z,29.78
2018-08-04T08:05:55.119Z,29.90
2018-08-04T08:08:23.182Z,29.98
2018-08-04T08:10:51.479Z,30.07
2018-08-04T08:13:19.471Z,30.14
2018-08-04T08:15:47.566Z,30.26
2018-08-04T08:18:15.666Z,30.32
2018-08-04T08:20:43.735Z,30.41
2018-08-04T08:23:11.897Z,30.43
2018-08-04T08:25:40.494Z,30.56
2018-08-04T08:28:08.603Z,30.86
2018-08-04T08:30:36.671Z,30.99
2018-08-04T08:33:04.744Z,31.13
2018-08-04T08:35:32.810Z,31.37
2018-08-04T08:38:00.886Z,31.51
2018-08-04T08:40:29.006Z,31.68
2018-08-04T08:42:57.031Z,31.79
2018-08-04T08:45:25.075Z,31.85
2018-08-04T08:47:53.170Z,31.96
2018-08-04T08:50:21.222Z,31.97
2018-08-04T08:52:49.286Z,32.03
2018-08-04T08:55:17.354Z,32.05
2018-08-04T08:57:45.441Z,32.02
2018-08-04T09:00:13.522Z,32.11
2018-08-04T09:02:41.604Z,32.05
2018-08-04T09:05:10.404Z,32.05
2018-08-04T09:07:38.460Z,32.24
2018-08-04T09:10:08.839Z,32.23
2018-08-04T09:12:36.900Z,32.29
2018-08-04T09:15:05.257Z,32.23
2018-08-04T09:17:33.305Z,32.41
2018-08-04T09:20:01.377Z,32.48
2018-08-04T09:22:29.459Z,32.42
2018-08-04T09:24:57.798Z,32.41
2018-08-04T09:27:25.869Z,32.60
2018-08-04T09:29:53.950Z,32.77
2018-08-04T09:32:22.017Z,32.94
2018-08-04T09:34:50.090Z,33.00
2018-08-04T09:37:18.158Z,33.04
2018-08-04T09:39:46.219Z,33.13
2018-08-04T09:42:14.299Z,33.22
2018-08-04T09:44:42.390Z,33.44
2018-08-04T09:47:10.418Z,33.33
2018-08-04T09:49:38.468Z,33.59
2018-08-04T09:52:06.670Z,33.71
2018-08-04T09:54:34.691Z,33.82
2018-08-04T09:57:02.734Z,33.71
2018-08-04T09:59:30.807Z,33.79
2018-08-04T10:02:04.321Z,33.85
2018-08-04T10:04:32.410Z,33.82
2018-08-04T10:07:00.502Z,33.84
2018-08-04T10:09:28.587Z,34.11
2018-08-04T10:11:56.655Z,34.36
2018-08-04T10:14:24.723Z,34.62
2018-08-04T10:16:52.788Z,33.99
2018-08-04T10:19:20.851Z,34.42
2018-08-04T10:21:48.886Z,34.42
2018-08-04T10:24:16.956Z,34.51
2018-08-04T10:26:45.007Z,34.51
2018-08-04T10:29:13.076Z,34.55
2018-08-04T10:31:41.127Z,34.26
2018-08-04T10:34:09.207Z,34.41
2018-08-04T10:36:37.276Z,34.61
2018-08-04T10:39:07.296Z,34.96
2018-08-04T10:41:35.378Z,35.13
2018-08-04T10:44:04.627Z,35.27
2018-08-04T10:46:32.666Z,35.02
2018-08-04T10:49:00.750Z,35.07
2018-08-04T10:51:28.826Z,34.87
2018-08-04T10:53:56.890Z,34.98
2018-08-04T10:56:24.942Z,34.82
2018-08-04T10:58:53.114Z,34.94
2018-08-04T11:01:21.174Z,35.08
2018-08-04T11:03:49.328Z,34.85
2018-08-04T11:06:17.381Z,35.09
2018-08-04T11:08:45.492Z,35.19
2018-08-04T11:11:13.564Z,35.24
2018-08-04T11:13:41.652Z,35.40
2018-08-04T11:16:09.723Z,35.59
2018-08-04T11:18:37.769Z,35.63
2018-08-04T11:21:05.948Z,35.66
2018-08-04T11:23:34.025Z,35.28
2018-08-04T11:26:02.094Z,35.36
2018-08-04T11:28:30.135Z,35.40
2018-08-04T11:30:58.268Z,35.74
2018-08-04T11:33:26.263Z,35.96
2018-08-04T11:35:54.401Z,36.08
2018-08-04T11:38:22.456Z,36.16
2018-08-04T11:40:50.547Z,35.97
2018-08-04T11:43:18.591Z,35.73
2018-08-04T11:45:46.738Z,35.53
2018-08-04T11:48:14.791Z,35.43
2018-08-04T11:50:42.843Z,35.30
2018-08-04T11:53:11.005Z,35.15
2018-08-04T11:55:39.081Z,35.10
2018-08-04T11:58:07.193Z,35.12
2018-08-04T12:00:35.271Z,35.04
2018-08-04T12:03:03.352Z,35.01
2018-08-04T12:05:31.494Z,34.86
2018-08-04T12:07:59.542Z,34.81
2018-08-04T12:10:27.608Z,34.71
2018-08-04T12:12:55.709Z,34.69
2018-08-04T12:15:23.867Z,34.68
2018-08-04T12:17:52.018Z,34.64
2018-08-04T12:20:20.150Z,34.54
2018-08-04T12:22:48.210Z,34.53
2018-08-04T12:25:16.277Z,34.51
2018-08-04T12:27:44.331Z,34.54
2018-08-04T12:30:12.507Z,34.61
2018-08-04T12:32:40.589Z,34.66
2018-08-04T12:35:09.210Z,34.69
2018-08-04T12:37:37.334Z,34.68
2018-08-04T12:40:05.408Z,34.81
2018-08-04T12:42:33.479Z,34.89
2018-08-04T12:45:01.594Z,34.94
2018-08-04T12:47:29.692Z,35.12
2018-08-04T12:49:57.795Z,35.08
2018-08-04T12:52:25.856Z,35.11
2018-08-04T12:54:53.932Z,35.25
2018-08-04T12:57:22.451Z,35.41
2018-08-04T12:59:50.510Z,35.40
2018-08-04T13:02:18.584Z,35.61
2018-08-04T13:04:47.036Z,35.85
2018-08-04T13:07:15.110Z,35.86
2018-08-04T13:09:43.212Z,35.93
2018-08-04T13:12:11.285Z,36.05
2018-08-04T13:14:39.360Z,36.20
2018-08-04T13:17:07.457Z,36.38
2018-08-04T13:19:35.539Z,36.61
2018-08-04T13:22:03.853Z,36.60
2018-08-04T13:24:32.091Z,36.56
2018-08-04T13:27:00.230Z,36.54
2018-08-04T13:29:28.321Z,36.55
2018-08-04T13:31:56.446Z,36.53
2018-08-04T13:34:24.520Z,36.39
2018-08-04T13:36:52.629Z,36.44
2018-08-04T13:39:20.658Z,36.71
2018-08-04T13:41:48.764Z,36.68
2018-08-04T13:44:16.827Z,36.57
2018-08-04T13:46:44.920Z,36.18
2018-08-04T13:49:13.001Z,36.03
2018-08-04T13:51:41.218Z,35.91
2018-08-04T13:54:09.303Z,35.75
2018-08-04T13:56:37.371Z,35.72
2018-08-04T13:59:05.501Z,35.48
2018-08-04T14:01:33.577Z,34.96
2018-08-04T14:04:01.657Z,34.75
2018-08-04T14:06:29.998Z,34.76
2018-08-04T14:08:58.052Z,34.65
2018-08-04T14:11:26.151Z,34.67
2018-08-04T14:13:54.282Z,34.72
2018-08-04T14:16:22.439Z,34.71
2018-08-04T14:18:50.548Z,34.78
2018-08-04T14:21:18.657Z,34.87
2018-08-04T14:23:46.824Z,34.92
2018-08-04T14:26:14.962Z,34.82
2018-08-04T14:28:43.051Z,34.99
2018-08-04T14:31:11.104Z,35.13
2018-08-04T14:33:39.170Z,35.29
2018-08-04T14:36:07.309Z,35.48
2018-08-04T14:38:35.371Z,35.67
2018-08-04T14:41:03.443Z,35.85
2018-08-04T14:43:31.502Z,35.76
2018-08-04T14:45:59.670Z,35.42
2018-08-04T14:48:27.780Z,35.10
2018-08-04T14:50:55.847Z,34.96
2018-08-04T14:53:23.906Z,34.95
2018-08-04T14:55:52.004Z,34.84
2018-08-04T14:58:20.045Z,34.64
2018-08-04T15:00:48.107Z,34.59
2018-08-04T15:03:16.197Z,34.54
2018-08-04T15:05:44.272Z,34.51
2018-08-04T15:08:12.340Z,34.64
2018-08-04T15:10:40.555Z,34.74
2018-08-04T15:13:08.604Z,34.81
2018-08-04T15:15:36.765Z,34.88
2018-08-04T15:18:05.077Z,34.91
2018-08-04T15:20:33.142Z,34.98
2018-08-04T15:23:01.344Z,34.92
2018-08-04T15:25:29.430Z,34.97
2018-08-04T15:27:57.539Z,35.02
2018-08-04T15:30:25.646Z,35.12
2018-08-04T15:32:53.731Z,35.22
2018-08-04T15:35:21.956Z,35.26
2018-08-04T15:37:50.047Z,35.32
2018-08-04T15:40:18.110Z,35.45
2018-08-04T15:42:46.187Z,35.49
2018-08-04T15:45:14.255Z,35.36
2018-08-04T15:47:42.371Z,35.50
2018-08-04T15:50:10.427Z,35.23
2018-08-04T15:52:38.698Z,35.18
2018-08-04T15:55:06.838Z,35.28
2018-08-04T15:57:34.911Z,34.99
2018-08-04T16:00:02.995Z,35.31
2018-08-04T16:02:31.061Z,35.38
2018-08-04T16:04:59.581Z,35.25
2018-08-04T16:07:27.641Z,35.50
2018-08-04T16:09:56.198Z,35.58
2018-08-04T16:12:24.300Z,35.39
2018-08-04T16:14:52.366Z,35.31
2018-08-04T16:17:20.414Z,35.37
2018-08-04T16:19:48.531Z,35.36
2018-08-04T16:22:16.686Z,35.39
2018-08-04T16:24:44.734Z,35.40
2018-08-04T16:27:12.888Z,35.38
2018-08-04T16:29:40.967Z,35.57
2018-08-04T16:32:09.037Z,35.44
2018-08-04T16:34:37.094Z,35.30
2018-08-04T16:37:05.178Z,35.31
2018-08-04T16:39:33.286Z,35.44
2018-08-04T16:42:01.417Z,35.58
2018-08-04T16:44:29.394Z,35.69
2018-08-04T16:46:57.467Z,35.81
2018-08-04T16:49:25.638Z,35.95
2018-08-04T16:51:53.766Z,35.79
2018-08-04T16:54:21.883Z,35.93
2018-08-04T16:56:49.964Z,36.04
2018-08-04T16:59:18.044Z,35.98
2018-08-04T17:01:46.108Z,35.96
2018-08-04T17:04:14.185Z,35.97
2018-08-04T17:06:42.255Z,35.92
2018-08-04T17:09:11.953Z,35.89
2018-08-04T17:11:40.032Z,35.85
2018-08-04T17:14:08.727Z,35.67
2018-08-04T17:16:36.824Z,35.73
2018-08-04T17:19:04.916Z,35.84
2018-08-04T17:21:32.985Z,35.80
2018-08-04T17:24:01.014Z,35.84
2018-08-04T17:26:29.210Z,35.98
2018-08-04T17:28:57.294Z,36.18
2018-08-04T17:31:25.358Z,36.34
2018-08-04T17:33:53.539Z,36.25
2018-08-04T17:36:21.827Z,36.48
2018-08-04T17:38:49.922Z,36.56
2018-08-04T17:41:18.062Z,36.46
2018-08-04T17:43:46.123Z,36.05
2018-08-04T17:46:14.227Z,35.74
2018-08-04T17:48:42.294Z,35.41
2018-08-04T17:51:10.486Z,35.24
2018-08-04T17:53:38.559Z,35.19
2018-08-04T17:56:06.682Z,35.21
2018-08-04T17:58:34.824Z,35.18
2018-08-04T18:01:02.909Z,34.98
2018-08-04T18:03:31.341Z,34.88
2018-08-04T18:05:59.505Z,34.82
2018-08-04T18:08:27.653Z,34.55
2018-08-04T18:10:55.777Z,34.56
2018-08-04T18:13:24.758Z,34.43
2018-08-04T18:15:53.032Z,34.32
2018-08-04T18:18:21.150Z,34.36
2018-08-04T18:20:49.519Z,34.20
2018-08-04T18:23:17.639Z,33.97
2018-08-04T18:25:45.756Z,33.98
2018-08-04T18:28:13.853Z,33.88
2018-08-04T18:30:42.894Z,33.85
2018-08-04T18:33:11.021Z,33.68
2018-08-04T18:35:39.431Z,33.73
2018-08-04T18:38:07.615Z,33.75
2018-08-04T18:40:35.731Z,33.56
2018-08-04T18:43:03.851Z,33.39
2018-08-04T18:45:31.983Z,33.37
2018-08-04T18:48:00.290Z,33.37
2018-08-04T18:50:28.700Z,33.15
2018-08-04T18:52:56.865Z,33.00
2018-08-04T18:55:24.945Z,33.11
2018-08-04T18:57:53.020Z,32.96
2018-08-04T19:00:21.119Z,32.95
2018-08-04T19:02:49.273Z,32.98
2018-08-04T19:05:17.398Z,32.91
2018-08-04T19:07:45.525Z,32.77
2018-08-04T19:10:13.816Z,32.69
2018-08-04T19:12:41.915Z,32.53
2018-08-04T19:15:12.663Z,32.59
2018-08-04T19:17:40.783Z,32.55
2018-08-04T19:20:08.896Z,32.51
2018-08-04T19:22:36.991Z,32.50
2018-08-04T19:25:05.742Z,32.46
2018-08-04T19:27:33.845Z,32.37
2018-08-04T19:30:02.091Z,32.34
2018-08-04T19:32:30.177Z,32.30
2018-08-04T19:34:58.267Z,32.24
2018-08-04T19:37:26.421Z,32.32
2018-08-04T19:39:54.523Z,32.24
2018-08-04T19:42:22.606Z,32.15
2018-08-04T19:44:50.737Z,32.01
2018-08-04T19:47:18.817Z,31.94
2018-08-04T19:49:46.924Z,31.98
2018-08-04T19:52:15.412Z,31.97
2018-08-04T19:54:43.746Z,31.93
2018-08-04T19:57:11.841Z,31.82
2018-08-04T19:59:39.948Z,31.77
2018-08-04T20:02:08.078Z,31.62
2018-08-04T20:04:36.201Z,31.56
2018-08-04T20:07:04.288Z,31.51
2018-08-04T20:09:32.396Z,31.50
2018-08-04T20:12:00.596Z,31.51
2018-08-04T20:14:28.709Z,31.48
2018-08-04T20:16:56.926Z,31.36
2018-08-04T20:19:25.036Z,31.42
2018-08-04T20:21:53.125Z,31.23
2018-08-04T20:24:21.271Z,31.27
2018-08-04T20:26:49.397Z,31.19
2018-08-04T20:29:17.537Z,31.10
2018-08-04T20:31:45.880Z,31.12
2018-08-04T20:34:13.979Z,31.07
2018-08-04T20:36:42.106Z,30.99
2018-08-04T20:39:10.745Z,30.91
2018-08-04T20:41:38.867Z,30.83
2018-08-04T20:44:07.108Z,30.88
2018-08-04T20:46:35.217Z,30.91
2018-08-04T20:49:03.368Z,30.80
2018-08-04T20:51:31.470Z,30.80
2018-08-04T20:53:59.599Z,30.63
2018-08-04T20:56:27.727Z,30.50
2018-08-04T20:58:55.852Z,30.50
2018-08-04T21:01:32.334Z,30.47
2018-08-04T21:04:00.431Z,30.44
2018-08-04T21:06:28.543Z,30.37
2018-08-04T21:08:56.641Z,30.24
2018-08-04T21:11:24.750Z,30.26
2018-08-04T21:13:52.876Z,30.12
2018-08-04T21:16:21.089Z,30.02
2018-08-04T21:18:49.217Z,30.11
2018-08-04T21:21:17.340Z,29.95
2018-08-04T21:23:45.466Z,29.91
2018-08-04T21:26:13.543Z,29.85
2018-08-04T21:28:41.778Z,29.80
2018-08-04T21:31:09.857Z,29.85
2018-08-04T21:33:38.035Z,29.74
2018-08-04T21:36:06.161Z,29.68
2018-08-04T21:38:35.320Z,29.72
2018-08-04T21:41:07.354Z,29.62
2018-08-04T21:43:36.114Z,29.59
2018-08-04T21:46:04.222Z,29.51
2018-08-04T21:48:38.323Z,29.49
2018-08-04T21:51:06.711Z,29.41
2018-08-04T21:53:41.446Z,29.35
2018-08-04T21:56:09.533Z,29.35
2018-08-04T21:58:37.983Z,29.25
2018-08-04T22:01:12.081Z,29.23
2018-08-04T22:03:41.501Z,29.21
2018-08-04T22:06:15.411Z,29.09
2018-08-04T22:08:54.712Z,29.05
2018-08-04T22:11:22.759Z,29.03
2018-08-04T22:13:50.818Z,28.94
2018-08-04T22:16:18.852Z,28.97
2018-08-04T22:18:46.918Z,28.92
2018-08-04T22:21:15.037Z,28.90
2018-08-04T22:23:43.110Z,28.79
2018-08-04T22:26:11.168Z,28.79
2018-08-04T22:28:39.226Z,28.83
2018-08-04T22:31:07.319Z,28.69
2018-08-04T22:33:35.624Z,28.64
2018-08-04T22:36:03.670Z,28.64
2018-08-04T22:38:31.701Z,28.66
2018-08-04T22:40:59.774Z,28.62
2018-08-04T22:43:27.828Z,28.50
2018-08-04T22:46:04.123Z,28.47
2018-08-04T22:48:32.327Z,28.40
2018-08-04T22:51:00.529Z,28.27
2018-08-04T22:53:28.862Z,28.43
2018-08-04T22:55:57.020Z,28.38
2018-08-04T22:58:25.200Z,28.37
2018-08-04T23:00:53.368Z,28.38
2018-08-04T23:03:21.519Z,28.35
2018-08-04T23:05:49.931Z,28.22
2018-08-04T23:08:18.038Z,28.33
2018-08-04T23:10:46.131Z,28.32
2018-08-04T23:13:14.800Z,28.36
2018-08-04T23:15:42.867Z,28.29
2018-08-04T23:18:10.982Z,28.23
2018-08-04T23:20:39.036Z,28.18
2018-08-04T23:23:07.895Z,28.23
2018-08-04T23:25:35.954Z,28.12
2018-08-04T23:28:04.001Z,28.11
2018-08-04T23:30:32.036Z,28.03
2018-08-04T23:33:00.083Z,28.06
2018-08-04T23:35:28.455Z,28.06
2018-08-04T23:37:56.499Z,28.03
2018-08-04T23:40:24.658Z,28.11
2018-08-04T23:42:52.722Z,28.05
2018-08-04T23:45:20.876Z,28.06
2018-08-04T23:47:48.962Z,28.03
2018-08-04T23:50:17.051Z,27.91
2018-08-04T23:52:45.064Z,27.96
2018-08-04T23:55:13.128Z,27.82
2018-08-04T23:57:41.199Z,27.83
